sensor_id;sensor_type;location;lat;lon;timestamp;P1;durP1;ratioP1;P2;durP2;ratioP2
40150;SDS011;25866;52.420;10.640;2023-08-31T00:05:13;6.03;;;5.30;;
40150;SDS011;25866;52.420;10.640;2023-08-31T00:07:40;5.63;;;4.75;;
40150;SDS011;25866;52.420;10.640;2023-08-31T00:10:06;7.90;;;5.50;;
40150;SDS011;25866;52.420;10.640;2023-08-31T00:12:43;8.30;;;5.75;;
40150;SDS011;25866;52.420;10.640;2023-08-31T00:15:15;6.72;;;5.18;;
40150;SDS011;25866;52.420;10.640;2023-08-31T00:17:42;5.80;;;5.20;;
40150;SDS011;25866;52.420;10.640;2023-08-31T00:20:10;5.70;;;4.68;;
40150;SDS011;25866;52.420;10.640;2023-08-31T00:25:07;7.25;;;5.90;;
40150;SDS011;25866;52.420;10.640;2023-08-31T00:27:37;10.80;;;6.35;;
40150;SDS011;25866;52.420;10.640;2023-08-31T00:30:07;7.63;;;6.28;;
40150;SDS011;25866;52.420;10.640;2023-08-31T00:37:35;7.07;;;6.30;;
40150;SDS011;25866;52.420;10.640;2023-08-31T00:40:01;8.18;;;6.18;;
40150;SDS011;25866;52.420;10.640;2023-08-31T00:42:31;7.30;;;6.57;;
40150;SDS011;25866;52.420;10.640;2023-08-31T00:44:59;11.45;;;6.40;;
40150;SDS011;25866;52.420;10.640;2023-08-31T00:47:25;7.55;;;6.30;;
40150;SDS011;25866;52.420;10.640;2023-08-31T00:52:22;11.35;;;6.45;;
40150;SDS011;25866;52.420;10.640;2023-08-31T00:54:49;7.57;;;6.60;;
40150;SDS011;25866;52.420;10.640;2023-08-31T00:57:20;11.82;;;6.80;;
40150;SDS011;25866;52.420;10.640;2023-08-31T00:59:47;8.05;;;6.85;;
40150;SDS011;25866;52.420;10.640;2023-08-31T01:02:19;10.18;;;6.75;;
40150;SDS011;25866;52.420;10.640;2023-08-31T01:05:02;11.13;;;7.68;;
40150;SDS011;25866;52.420;10.640;2023-08-31T01:13:15;9.80;;;7.43;;
40150;SDS011;25866;52.420;10.640;2023-08-31T01:15:56;9.95;;;6.82;;
40150;SDS011;25866;52.420;10.640;2023-08-31T01:18:38;8.57;;;7.30;;
40150;SDS011;25866;52.420;10.640;2023-08-31T01:21:30;7.28;;;6.38;;
40150;SDS011;25866;52.420;10.640;2023-08-31T01:24:02;9.38;;;7.50;;
40150;SDS011;25866;52.420;10.640;2023-08-31T01:26:35;9.93;;;7.72;;
40150;SDS011;25866;52.420;10.640;2023-08-31T01:29:01;10.07;;;6.82;;
40150;SDS011;25866;52.420;10.640;2023-08-31T01:31:28;10.82;;;7.75;;
40150;SDS011;25866;52.420;10.640;2023-08-31T01:33:55;9.68;;;7.28;;
40150;SDS011;25866;52.420;10.640;2023-08-31T01:36:27;10.98;;;7.30;;
40150;SDS011;25866;52.420;10.640;2023-08-31T01:41:51;10.23;;;7.20;;
40150;SDS011;25866;52.420;10.640;2023-08-31T01:44:34;10.02;;;7.30;;
40150;SDS011;25866;52.420;10.640;2023-08-31T01:47:03;10.25;;;7.55;;
40150;SDS011;25866;52.420;10.640;2023-08-31T01:52:16;10.70;;;7.32;;
40150;SDS011;25866;52.420;10.640;2023-08-31T01:54:47;11.82;;;7.85;;
40150;SDS011;25866;52.420;10.640;2023-08-31T01:57:13;8.85;;;7.43;;
40150;SDS011;25866;52.420;10.640;2023-08-31T01:59:39;11.45;;;7.57;;
40150;SDS011;25866;52.420;10.640;2023-08-31T02:02:05;11.02;;;7.40;;
40150;SDS011;25866;52.420;10.640;2023-08-31T02:04:30;9.93;;;7.68;;
40150;SDS011;25866;52.420;10.640;2023-08-31T02:06:56;10.27;;;6.78;;
40150;SDS011;25866;52.420;10.640;2023-08-31T02:09:27;11.88;;;7.63;;
40150;SDS011;25866;52.420;10.640;2023-08-31T02:11:53;18.63;;;7.75;;
40150;SDS011;25866;52.420;10.640;2023-08-31T02:14:18;10.65;;;7.47;;
40150;SDS011;25866;52.420;10.640;2023-08-31T02:16:44;10.05;;;6.88;;
40150;SDS011;25866;52.420;10.640;2023-08-31T02:19:10;11.57;;;7.68;;
40150;SDS011;25866;52.420;10.640;2023-08-31T02:21:36;10.52;;;6.82;;
40150;SDS011;25866;52.420;10.640;2023-08-31T02:24:01;11.32;;;7.20;;
40150;SDS011;25866;52.420;10.640;2023-08-31T02:26:28;14.18;;;7.43;;
40150;SDS011;25866;52.420;10.640;2023-08-31T02:29:02;10.25;;;7.13;;
40150;SDS011;25866;52.420;10.640;2023-08-31T02:31:28;12.68;;;7.28;;
40150;SDS011;25866;52.420;10.640;2023-08-31T02:33:53;12.88;;;7.85;;
40150;SDS011;25866;52.420;10.640;2023-08-31T02:36:19;14.05;;;8.00;;
40150;SDS011;25866;52.420;10.640;2023-08-31T02:38:50;10.40;;;7.63;;
40150;SDS011;25866;52.420;10.640;2023-08-31T02:41:15;10.93;;;7.38;;
40150;SDS011;25866;52.420;10.640;2023-08-31T02:43:42;10.77;;;7.30;;
40150;SDS011;25866;52.420;10.640;2023-08-31T02:46:08;8.93;;;7.57;;
40150;SDS011;25866;52.420;10.640;2023-08-31T02:48:40;11.18;;;7.57;;
40150;SDS011;25866;52.420;10.640;2023-08-31T02:51:05;11.63;;;7.97;;
40150;SDS011;25866;52.420;10.640;2023-08-31T02:53:31;12.43;;;7.53;;
40150;SDS011;25866;52.420;10.640;2023-08-31T02:55:57;15.68;;;7.68;;
40150;SDS011;25866;52.420;10.640;2023-08-31T02:58:24;11.32;;;8.30;;
40150;SDS011;25866;52.420;10.640;2023-08-31T03:00:50;9.98;;;7.80;;
40150;SDS011;25866;52.420;10.640;2023-08-31T03:03:19;12.18;;;8.82;;
40150;SDS011;25866;52.420;10.640;2023-08-31T03:05:45;12.20;;;8.90;;
40150;SDS011;25866;52.420;10.640;2023-08-31T03:08:10;13.35;;;8.20;;
40150;SDS011;25866;52.420;10.640;2023-08-31T03:10:37;11.32;;;8.98;;
40150;SDS011;25866;52.420;10.640;2023-08-31T03:13:03;13.48;;;8.88;;
40150;SDS011;25866;52.420;10.640;2023-08-31T03:15:29;11.40;;;8.55;;
40150;SDS011;25866;52.420;10.640;2023-08-31T03:17:57;12.82;;;8.77;;
40150;SDS011;25866;52.420;10.640;2023-08-31T03:22:53;12.35;;;8.15;;
40150;SDS011;25866;52.420;10.640;2023-08-31T03:25:19;15.65;;;9.00;;
40150;SDS011;25866;52.420;10.640;2023-08-31T03:27:45;14.35;;;8.57;;
40150;SDS011;25866;52.420;10.640;2023-08-31T03:30:17;10.40;;;8.65;;
40150;SDS011;25866;52.420;10.640;2023-08-31T03:32:43;11.20;;;8.18;;
40150;SDS011;25866;52.420;10.640;2023-08-31T03:35:09;13.40;;;9.18;;
40150;SDS011;25866;52.420;10.640;2023-08-31T03:37:34;10.68;;;8.73;;
40150;SDS011;25866;52.420;10.640;2023-08-31T03:40:00;11.95;;;8.63;;
40150;SDS011;25866;52.420;10.640;2023-08-31T03:42:26;14.75;;;9.25;;
40150;SDS011;25866;52.420;10.640;2023-08-31T03:44:51;12.70;;;8.70;;
40150;SDS011;25866;52.420;10.640;2023-08-31T03:47:17;14.75;;;8.63;;
40150;SDS011;25866;52.420;10.640;2023-08-31T03:49:44;11.25;;;8.65;;
40150;SDS011;25866;52.420;10.640;2023-08-31T03:52:10;14.75;;;8.70;;
40150;SDS011;25866;52.420;10.640;2023-08-31T03:54:35;12.85;;;9.40;;
40150;SDS011;25866;52.420;10.640;2023-08-31T03:57:01;14.50;;;9.88;;
40150;SDS011;25866;52.420;10.640;2023-08-31T03:59:40;12.68;;;8.85;;
40150;SDS011;25866;52.420;10.640;2023-08-31T04:02:06;11.25;;;8.35;;
40150;SDS011;25866;52.420;10.640;2023-08-31T04:04:32;13.48;;;8.80;;
40150;SDS011;25866;52.420;10.640;2023-08-31T04:06:59;12.05;;;8.60;;
40150;SDS011;25866;52.420;10.640;2023-08-31T04:09:25;11.63;;;9.15;;
40150;SDS011;25866;52.420;10.640;2023-08-31T04:11:51;16.20;;;9.40;;
40150;SDS011;25866;52.420;10.640;2023-08-31T04:14:17;13.60;;;8.60;;
40150;SDS011;25866;52.420;10.640;2023-08-31T04:16:43;13.32;;;8.77;;
40150;SDS011;25866;52.420;10.640;2023-08-31T04:19:10;12.90;;;9.27;;
40150;SDS011;25866;52.420;10.640;2023-08-31T04:21:36;17.30;;;9.27;;
40150;SDS011;25866;52.420;10.640;2023-08-31T04:24:03;15.57;;;9.60;;
40150;SDS011;25866;52.420;10.640;2023-08-31T04:26:29;15.68;;;8.63;;
40150;SDS011;25866;52.420;10.640;2023-08-31T04:28:54;15.07;;;9.05;;
40150;SDS011;25866;52.420;10.640;2023-08-31T04:31:21;13.07;;;8.82;;
40150;SDS011;25866;52.420;10.640;2023-08-31T04:33:47;12.07;;;8.55;;
40150;SDS011;25866;52.420;10.640;2023-08-31T04:36:13;11.57;;;8.70;;
40150;SDS011;25866;52.420;10.640;2023-08-31T04:38:39;15.23;;;9.60;;
40150;SDS011;25866;52.420;10.640;2023-08-31T04:41:06;13.20;;;9.13;;
40150;SDS011;25866;52.420;10.640;2023-08-31T04:43:32;12.23;;;8.82;;
40150;SDS011;25866;52.420;10.640;2023-08-31T04:45:57;16.17;;;9.35;;
40150;SDS011;25866;52.420;10.640;2023-08-31T04:48:23;12.48;;;8.23;;
40150;SDS011;25866;52.420;10.640;2023-08-31T04:50:59;18.48;;;9.60;;
40150;SDS011;25866;52.420;10.640;2023-08-31T04:53:25;15.50;;;8.82;;
40150;SDS011;25866;52.420;10.640;2023-08-31T04:55:51;11.70;;;8.60;;
40150;SDS011;25866;52.420;10.640;2023-08-31T04:58:18;11.57;;;8.10;;
40150;SDS011;25866;52.420;10.640;2023-08-31T05:03:18;15.60;;;8.60;;
40150;SDS011;25866;52.420;10.640;2023-08-31T05:05:44;10.35;;;7.93;;
40150;SDS011;25866;52.420;10.640;2023-08-31T05:08:09;11.68;;;8.25;;
40150;SDS011;25866;52.420;10.640;2023-08-31T05:10:41;13.95;;;8.88;;
40150;SDS011;25866;52.420;10.640;2023-08-31T05:13:07;12.23;;;8.45;;
40150;SDS011;25866;52.420;10.640;2023-08-31T05:15:34;13.88;;;9.23;;
40150;SDS011;25866;52.420;10.640;2023-08-31T05:18:00;12.35;;;7.72;;
40150;SDS011;25866;52.420;10.640;2023-08-31T05:20:25;15.93;;;8.52;;
40150;SDS011;25866;52.420;10.640;2023-08-31T05:22:52;9.65;;;7.30;;
40150;SDS011;25866;52.420;10.640;2023-08-31T05:25:17;13.98;;;8.13;;
40150;SDS011;25866;52.420;10.640;2023-08-31T05:27:43;13.10;;;7.97;;
40150;SDS011;25866;52.420;10.640;2023-08-31T05:30:10;11.95;;;7.88;;
40150;SDS011;25866;52.420;10.640;2023-08-31T05:32:37;12.40;;;8.40;;
40150;SDS011;25866;52.420;10.640;2023-08-31T05:35:02;13.40;;;8.02;;
40150;SDS011;25866;52.420;10.640;2023-08-31T05:37:31;9.18;;;7.50;;
40150;SDS011;25866;52.420;10.640;2023-08-31T05:40:03;15.77;;;7.68;;
40150;SDS011;25866;52.420;10.640;2023-08-31T05:42:35;10.43;;;7.72;;
40150;SDS011;25866;52.420;10.640;2023-08-31T05:45:01;10.32;;;7.72;;
40150;SDS011;25866;52.420;10.640;2023-08-31T05:47:27;15.02;;;8.32;;
40150;SDS011;25866;52.420;10.640;2023-08-31T05:49:54;9.68;;;7.55;;
40150;SDS011;25866;52.420;10.640;2023-08-31T05:52:20;16.58;;;7.82;;
40150;SDS011;25866;52.420;10.640;2023-08-31T05:54:46;9.80;;;7.28;;
40150;SDS011;25866;52.420;10.640;2023-08-31T05:57:18;10.23;;;7.00;;
40150;SDS011;25866;52.420;10.640;2023-08-31T05:59:44;9.27;;;6.03;;
40150;SDS011;25866;52.420;10.640;2023-08-31T06:02:13;13.20;;;6.63;;
40150;SDS011;25866;52.420;10.640;2023-08-31T06:04:39;13.73;;;6.30;;
40150;SDS011;25866;52.420;10.640;2023-08-31T06:07:05;9.98;;;6.38;;
40150;SDS011;25866;52.420;10.640;2023-08-31T06:09:31;10.02;;;5.93;;
40150;SDS011;25866;52.420;10.640;2023-08-31T06:11:56;11.52;;;6.25;;
40150;SDS011;25866;52.420;10.640;2023-08-31T06:14:22;9.55;;;7.05;;
40150;SDS011;25866;52.420;10.640;2023-08-31T06:16:47;11.75;;;8.18;;
40150;SDS011;25866;52.420;10.640;2023-08-31T06:19:13;13.45;;;7.78;;
40150;SDS011;25866;52.420;10.640;2023-08-31T06:21:43;15.63;;;8.57;;
40150;SDS011;25866;52.420;10.640;2023-08-31T06:24:08;16.70;;;8.75;;
40150;SDS011;25866;52.420;10.640;2023-08-31T06:26:37;13.07;;;9.68;;
40150;SDS011;25866;52.420;10.640;2023-08-31T06:29:03;11.50;;;9.60;;
40150;SDS011;25866;52.420;10.640;2023-08-31T06:31:31;14.48;;;9.57;;
40150;SDS011;25866;52.420;10.640;2023-08-31T06:33:57;17.05;;;9.45;;
40150;SDS011;25866;52.420;10.640;2023-08-31T06:36:23;13.88;;;9.50;;
40150;SDS011;25866;52.420;10.640;2023-08-31T06:38:49;12.98;;;9.45;;
40150;SDS011;25866;52.420;10.640;2023-08-31T06:41:17;13.32;;;10.05;;
40150;SDS011;25866;52.420;10.640;2023-08-31T06:43:43;15.07;;;10.18;;
40150;SDS011;25866;52.420;10.640;2023-08-31T06:46:10;13.70;;;9.90;;
40150;SDS011;25866;52.420;10.640;2023-08-31T06:48:36;15.07;;;10.85;;
40150;SDS011;25866;52.420;10.640;2023-08-31T06:51:02;15.27;;;9.75;;
40150;SDS011;25866;52.420;10.640;2023-08-31T06:53:29;15.02;;;10.55;;
40150;SDS011;25866;52.420;10.640;2023-08-31T06:55:56;14.25;;;10.85;;
40150;SDS011;25866;52.420;10.640;2023-08-31T06:58:23;13.43;;;10.23;;
40150;SDS011;25866;52.420;10.640;2023-08-31T07:00:49;16.58;;;10.43;;
40150;SDS011;25866;52.420;10.640;2023-08-31T07:03:18;12.13;;;10.00;;
40150;SDS011;25866;52.420;10.640;2023-08-31T07:05:44;11.98;;;10.60;;
40150;SDS011;25866;52.420;10.640;2023-08-31T07:08:10;12.35;;;9.63;;
40150;SDS011;25866;52.420;10.640;2023-08-31T07:10:36;14.82;;;9.80;;
40150;SDS011;25866;52.420;10.640;2023-08-31T07:13:02;13.45;;;10.13;;
40150;SDS011;25866;52.420;10.640;2023-08-31T07:15:28;11.60;;;9.68;;
40150;SDS011;25866;52.420;10.640;2023-08-31T07:17:54;13.05;;;9.48;;
40150;SDS011;25866;52.420;10.640;2023-08-31T07:20:20;14.65;;;9.63;;
40150;SDS011;25866;52.420;10.640;2023-08-31T07:22:46;12.15;;;9.88;;
40150;SDS011;25866;52.420;10.640;2023-08-31T07:25:11;14.18;;;10.45;;
40150;SDS011;25866;52.420;10.640;2023-08-31T07:27:37;11.32;;;10.23;;
40150;SDS011;25866;52.420;10.640;2023-08-31T07:30:04;17.08;;;10.52;;
40150;SDS011;25866;52.420;10.640;2023-08-31T07:32:32;13.43;;;9.77;;
40150;SDS011;25866;52.420;10.640;2023-08-31T07:34:58;14.55;;;11.55;;
40150;SDS011;25866;52.420;10.640;2023-08-31T07:37:24;14.98;;;10.90;;
40150;SDS011;25866;52.420;10.640;2023-08-31T07:39:49;15.63;;;10.23;;
40150;SDS011;25866;52.420;10.640;2023-08-31T07:42:16;13.13;;;9.20;;
40150;SDS011;25866;52.420;10.640;2023-08-31T07:44:41;10.40;;;9.15;;
40150;SDS011;25866;52.420;10.640;2023-08-31T07:47:09;10.70;;;9.60;;
40150;SDS011;25866;52.420;10.640;2023-08-31T07:49:34;13.07;;;9.57;;
40150;SDS011;25866;52.420;10.640;2023-08-31T07:52:00;13.35;;;9.18;;
40150;SDS011;25866;52.420;10.640;2023-08-31T07:54:27;10.70;;;9.60;;
40150;SDS011;25866;52.420;10.640;2023-08-31T07:56:53;12.15;;;9.68;;
40150;SDS011;25866;52.420;10.640;2023-08-31T07:59:19;10.73;;;9.63;;
40150;SDS011;25866;52.420;10.640;2023-08-31T08:01:45;12.75;;;8.70;;
40150;SDS011;25866;52.420;10.640;2023-08-31T08:04:14;11.88;;;8.55;;
40150;SDS011;25866;52.420;10.640;2023-08-31T08:06:40;11.02;;;9.45;;
40150;SDS011;25866;52.420;10.640;2023-08-31T08:09:05;12.77;;;8.55;;
40150;SDS011;25866;52.420;10.640;2023-08-31T08:11:32;10.07;;;8.32;;
40150;SDS011;25866;52.420;10.640;2023-08-31T08:13:59;11.20;;;8.25;;
40150;SDS011;25866;52.420;10.640;2023-08-31T08:16:25;12.30;;;7.68;;
40150;SDS011;25866;52.420;10.640;2023-08-31T08:18:51;11.52;;;7.53;;
40150;SDS011;25866;52.420;10.640;2023-08-31T08:21:16;8.40;;;7.00;;
40150;SDS011;25866;52.420;10.640;2023-08-31T08:23:42;8.90;;;6.63;;
40150;SDS011;25866;52.420;10.640;2023-08-31T08:26:08;11.38;;;7.13;;
40150;SDS011;25866;52.420;10.640;2023-08-31T08:28:33;11.90;;;7.22;;
40150;SDS011;25866;52.420;10.640;2023-08-31T08:31:02;9.07;;;6.70;;
40150;SDS011;25866;52.420;10.640;2023-08-31T08:33:30;7.25;;;6.45;;
40150;SDS011;25866;52.420;10.640;2023-08-31T08:35:56;8.77;;;5.45;;
40150;SDS011;25866;52.420;10.640;2023-08-31T08:38:22;6.65;;;5.13;;
40150;SDS011;25866;52.420;10.640;2023-08-31T08:40:49;6.38;;;5.10;;
40150;SDS011;25866;52.420;10.640;2023-08-31T08:43:15;5.15;;;4.28;;
40150;SDS011;25866;52.420;10.640;2023-08-31T08:45:48;6.22;;;4.45;;
40150;SDS011;25866;52.420;10.640;2023-08-31T08:48:15;6.70;;;4.10;;
40150;SDS011;25866;52.420;10.640;2023-08-31T08:50:42;7.57;;;4.20;;
40150;SDS011;25866;52.420;10.640;2023-08-31T08:53:08;6.32;;;4.32;;
40150;SDS011;25866;52.420;10.640;2023-08-31T08:55:35;7.22;;;3.58;;
40150;SDS011;25866;52.420;10.640;2023-08-31T08:58:01;5.90;;;3.67;;
40150;SDS011;25866;52.420;10.640;2023-08-31T09:00:28;6.07;;;4.68;;
40150;SDS011;25866;52.420;10.640;2023-08-31T09:02:56;6.85;;;4.22;;
40150;SDS011;25866;52.420;10.640;2023-08-31T09:05:23;5.10;;;3.78;;
40150;SDS011;25866;52.420;10.640;2023-08-31T09:08:02;5.32;;;3.60;;
40150;SDS011;25866;52.420;10.640;2023-08-31T09:10:37;6.75;;;3.85;;
40150;SDS011;25866;52.420;10.640;2023-08-31T09:13:18;4.32;;;2.70;;
40150;SDS011;25866;52.420;10.640;2023-08-31T09:15:45;3.22;;;2.75;;
40150;SDS011;25866;52.420;10.640;2023-08-31T09:18:25;5.13;;;3.00;;
40150;SDS011;25866;52.420;10.640;2023-08-31T09:20:54;5.00;;;3.10;;
40150;SDS011;25866;52.420;10.640;2023-08-31T09:23:22;4.03;;;3.03;;
40150;SDS011;25866;52.420;10.640;2023-08-31T09:25:51;5.38;;;3.00;;
40150;SDS011;25866;52.420;10.640;2023-08-31T09:28:19;3.15;;;2.80;;
40150;SDS011;25866;52.420;10.640;2023-08-31T09:30:51;5.13;;;2.92;;
40150;SDS011;25866;52.420;10.640;2023-08-31T09:33:19;6.80;;;3.22;;
40150;SDS011;25866;52.420;10.640;2023-08-31T09:35:49;3.75;;;2.60;;
40150;SDS011;25866;52.420;10.640;2023-08-31T09:38:16;4.30;;;3.00;;
40150;SDS011;25866;52.420;10.640;2023-08-31T09:40:43;6.18;;;2.90;;
40150;SDS011;25866;52.420;10.640;2023-08-31T09:43:08;4.63;;;2.60;;
40150;SDS011;25866;52.420;10.640;2023-08-31T09:45:34;6.30;;;2.50;;
40150;SDS011;25866;52.420;10.640;2023-08-31T09:48:01;4.90;;;3.10;;
40150;SDS011;25866;52.420;10.640;2023-08-31T09:50:28;5.43;;;2.40;;
40150;SDS011;25866;52.420;10.640;2023-08-31T09:55:31;5.65;;;1.90;;
40150;SDS011;25866;52.420;10.640;2023-08-31T09:57:59;3.53;;;2.17;;
40150;SDS011;25866;52.420;10.640;2023-08-31T10:00:28;3.55;;;2.22;;
40150;SDS011;25866;52.420;10.640;2023-08-31T10:02:56;4.55;;;2.10;;
40150;SDS011;25866;52.420;10.640;2023-08-31T10:05:25;4.32;;;2.25;;
40150;SDS011;25866;52.420;10.640;2023-08-31T10:07:51;3.35;;;2.10;;
40150;SDS011;25866;52.420;10.640;2023-08-31T10:10:17;3.50;;;2.08;;
40150;SDS011;25866;52.420;10.640;2023-08-31T10:12:47;3.25;;;1.83;;
40150;SDS011;25866;52.420;10.640;2023-08-31T10:15:15;3.95;;;1.80;;
40150;SDS011;25866;52.420;10.640;2023-08-31T10:17:41;3.28;;;1.60;;
40150;SDS011;25866;52.420;10.640;2023-08-31T10:20:08;4.22;;;1.92;;
40150;SDS011;25866;52.420;10.640;2023-08-31T10:22:36;3.20;;;1.42;;
40150;SDS011;25866;52.420;10.640;2023-08-31T10:25:03;3.35;;;1.63;;
40150;SDS011;25866;52.420;10.640;2023-08-31T10:27:42;3.03;;;1.50;;
40150;SDS011;25866;52.420;10.640;2023-08-31T10:30:12;3.40;;;1.60;;
40150;SDS011;25866;52.420;10.640;2023-08-31T10:35:48;4.57;;;1.77;;
40150;SDS011;25866;52.420;10.640;2023-08-31T10:38:14;4.00;;;1.70;;
40150;SDS011;25866;52.420;10.640;2023-08-31T10:43:49;8.30;;;2.00;;
40150;SDS011;25866;52.420;10.640;2023-08-31T10:49:01;2.50;;;1.60;;
40150;SDS011;25866;52.420;10.640;2023-08-31T10:51:52;6.22;;;1.55;;
40150;SDS011;25866;52.420;10.640;2023-08-31T10:54:23;4.30;;;1.70;;
40150;SDS011;25866;52.420;10.640;2023-08-31T10:59:25;4.93;;;1.77;;
40150;SDS011;25866;52.420;10.640;2023-08-31T11:02:06;5.50;;;1.60;;
40150;SDS011;25866;52.420;10.640;2023-08-31T11:04:38;3.70;;;1.75;;
40150;SDS011;25866;52.420;10.640;2023-08-31T11:07:19;7.50;;;1.90;;
40150;SDS011;25866;52.420;10.640;2023-08-31T11:09:48;4.28;;;1.50;;
40150;SDS011;25866;52.420;10.640;2023-08-31T11:12:17;3.97;;;1.40;;
40150;SDS011;25866;52.420;10.640;2023-08-31T11:14:47;3.13;;;1.23;;
40150;SDS011;25866;52.420;10.640;2023-08-31T11:17:13;4.55;;;1.45;;
40150;SDS011;25866;52.420;10.640;2023-08-31T11:19:38;5.20;;;2.10;;
40150;SDS011;25866;52.420;10.640;2023-08-31T11:22:05;4.20;;;1.70;;
40150;SDS011;25866;52.420;10.640;2023-08-31T11:24:31;7.10;;;1.90;;
40150;SDS011;25866;52.420;10.640;2023-08-31T11:26:58;4.65;;;1.70;;
40150;SDS011;25866;52.420;10.640;2023-08-31T11:29:24;1.67;;;1.50;;
40150;SDS011;25866;52.420;10.640;2023-08-31T11:31:50;4.22;;;1.80;;
40150;SDS011;25866;52.420;10.640;2023-08-31T11:34:16;3.10;;;1.60;;
40150;SDS011;25866;52.420;10.640;2023-08-31T11:36:43;4.88;;;1.70;;
40150;SDS011;25866;52.420;10.640;2023-08-31T11:39:11;2.83;;;1.55;;
40150;SDS011;25866;52.420;10.640;2023-08-31T11:41:39;3.00;;;1.80;;
40150;SDS011;25866;52.420;10.640;2023-08-31T11:44:11;3.47;;;1.60;;
40150;SDS011;25866;52.420;10.640;2023-08-31T11:46:39;4.88;;;2.15;;
40150;SDS011;25866;52.420;10.640;2023-08-31T11:49:06;3.55;;;1.40;;
40150;SDS011;25866;52.420;10.640;2023-08-31T11:51:33;5.22;;;1.60;;
40150;SDS011;25866;52.420;10.640;2023-08-31T11:54:00;3.83;;;2.05;;
40150;SDS011;25866;52.420;10.640;2023-08-31T11:56:46;2.78;;;1.85;;
40150;SDS011;25866;52.420;10.640;2023-08-31T11:59:18;2.83;;;1.83;;
40150;SDS011;25866;52.420;10.640;2023-08-31T12:01:49;4.57;;;1.95;;
40150;SDS011;25866;52.420;10.640;2023-08-31T12:04:16;4.10;;;2.05;;
40150;SDS011;25866;52.420;10.640;2023-08-31T12:07:00;4.18;;;2.38;;
40150;SDS011;25866;52.420;10.640;2023-08-31T12:09:29;3.22;;;2.00;;
40150;SDS011;25866;52.420;10.640;2023-08-31T12:11:55;6.80;;;2.40;;
40150;SDS011;25866;52.420;10.640;2023-08-31T12:14:25;4.07;;;2.05;;
40150;SDS011;25866;52.420;10.640;2023-08-31T12:16:59;2.60;;;1.98;;
40150;SDS011;25866;52.420;10.640;2023-08-31T12:19:29;5.25;;;1.98;;
40150;SDS011;25866;52.420;10.640;2023-08-31T12:21:56;7.60;;;2.17;;
40150;SDS011;25866;52.420;10.640;2023-08-31T12:24:21;4.88;;;2.33;;
40150;SDS011;25866;52.420;10.640;2023-08-31T12:26:48;3.28;;;2.05;;
40150;SDS011;25866;52.420;10.640;2023-08-31T12:29:15;2.88;;;1.77;;
40150;SDS011;25866;52.420;10.640;2023-08-31T12:31:41;5.22;;;2.03;;
40150;SDS011;25866;52.420;10.640;2023-08-31T12:34:08;2.40;;;1.80;;
40150;SDS011;25866;52.420;10.640;2023-08-31T12:36:35;4.00;;;1.70;;
40150;SDS011;25866;52.420;10.640;2023-08-31T12:39:06;2.92;;;1.65;;
40150;SDS011;25866;52.420;10.640;2023-08-31T12:41:34;2.45;;;1.52;;
40150;SDS011;25866;52.420;10.640;2023-08-31T12:44:01;4.63;;;2.00;;
40150;SDS011;25866;52.420;10.640;2023-08-31T12:46:28;12.00;;;2.30;;
40150;SDS011;25866;52.420;10.640;2023-08-31T12:48:55;5.57;;;1.80;;
40150;SDS011;25866;52.420;10.640;2023-08-31T12:51:21;5.43;;;1.73;;
40150;SDS011;25866;52.420;10.640;2023-08-31T12:53:48;3.08;;;1.77;;
40150;SDS011;25866;52.420;10.640;2023-08-31T12:56:13;3.95;;;1.75;;
40150;SDS011;25866;52.420;10.640;2023-08-31T12:58:46;3.28;;;1.75;;
40150;SDS011;25866;52.420;10.640;2023-08-31T13:01:15;4.95;;;1.85;;
40150;SDS011;25866;52.420;10.640;2023-08-31T13:03:40;2.55;;;1.48;;
40150;SDS011;25866;52.420;10.640;2023-08-31T13:06:06;2.85;;;1.60;;
40150;SDS011;25866;52.420;10.640;2023-08-31T13:08:32;4.38;;;1.70;;
40150;SDS011;25866;52.420;10.640;2023-08-31T13:10:57;8.07;;;1.98;;
40150;SDS011;25866;52.420;10.640;2023-08-31T13:13:23;4.53;;;1.95;;
40150;SDS011;25866;52.420;10.640;2023-08-31T13:15:49;1.88;;;1.58;;
40150;SDS011;25866;52.420;10.640;2023-08-31T13:18:15;4.68;;;1.55;;
40150;SDS011;25866;52.420;10.640;2023-08-31T13:20:48;1.77;;;0.85;;
40150;SDS011;25866;52.420;10.640;2023-08-31T13:23:14;1.95;;;0.75;;
40150;SDS011;25866;52.420;10.640;2023-08-31T13:25:40;1.45;;;0.90;;
40150;SDS011;25866;52.420;10.640;2023-08-31T13:28:05;1.48;;;0.90;;
40150;SDS011;25866;52.420;10.640;2023-08-31T13:30:31;3.10;;;1.08;;
40150;SDS011;25866;52.420;10.640;2023-08-31T13:32:58;2.83;;;1.10;;
40150;SDS011;25866;52.420;10.640;2023-08-31T13:35:25;1.65;;;1.10;;
40150;SDS011;25866;52.420;10.640;2023-08-31T13:37:50;2.50;;;0.95;;
40150;SDS011;25866;52.420;10.640;2023-08-31T13:40:17;2.70;;;1.10;;
40150;SDS011;25866;52.420;10.640;2023-08-31T13:42:53;3.55;;;1.25;;
40150;SDS011;25866;52.420;10.640;2023-08-31T13:45:19;3.58;;;1.02;;
40150;SDS011;25866;52.420;10.640;2023-08-31T13:47:45;3.88;;;1.00;;
40150;SDS011;25866;52.420;10.640;2023-08-31T13:50:14;2.67;;;1.15;;
40150;SDS011;25866;52.420;10.640;2023-08-31T13:52:48;1.02;;;0.77;;
40150;SDS011;25866;52.420;10.640;2023-08-31T13:55:13;2.70;;;1.20;;
40150;SDS011;25866;52.420;10.640;2023-08-31T13:57:40;2.13;;;1.20;;
40150;SDS011;25866;52.420;10.640;2023-08-31T14:00:07;3.40;;;1.20;;
40150;SDS011;25866;52.420;10.640;2023-08-31T14:02:35;3.35;;;0.98;;
40150;SDS011;25866;52.420;10.640;2023-08-31T14:05:04;1.70;;;1.20;;
40150;SDS011;25866;52.420;10.640;2023-08-31T14:07:35;0.98;;;0.80;;
40150;SDS011;25866;52.420;10.640;2023-08-31T14:10:01;2.08;;;1.20;;
40150;SDS011;25866;52.420;10.640;2023-08-31T14:12:30;1.58;;;1.10;;
40150;SDS011;25866;52.420;10.640;2023-08-31T14:14:56;3.33;;;1.10;;
40150;SDS011;25866;52.420;10.640;2023-08-31T14:17:23;2.47;;;1.30;;
40150;SDS011;25866;52.420;10.640;2023-08-31T14:19:48;2.40;;;1.27;;
40150;SDS011;25866;52.420;10.640;2023-08-31T14:22:14;4.53;;;1.70;;
40150;SDS011;25866;52.420;10.640;2023-08-31T14:24:42;2.40;;;1.20;;
40150;SDS011;25866;52.420;10.640;2023-08-31T14:27:08;2.80;;;1.30;;
40150;SDS011;25866;52.420;10.640;2023-08-31T14:29:34;5.40;;;1.63;;
40150;SDS011;25866;52.420;10.640;2023-08-31T14:32:01;3.45;;;1.48;;
40150;SDS011;25866;52.420;10.640;2023-08-31T14:37:17;5.13;;;1.25;;
40150;SDS011;25866;52.420;10.640;2023-08-31T14:39:46;2.67;;;1.33;;
40150;SDS011;25866;52.420;10.640;2023-08-31T14:42:12;6.28;;;1.10;;
40150;SDS011;25866;52.420;10.640;2023-08-31T14:44:37;5.03;;;1.08;;
40150;SDS011;25866;52.420;10.640;2023-08-31T14:47:03;6.35;;;1.33;;
40150;SDS011;25866;52.420;10.640;2023-08-31T14:49:29;4.15;;;1.35;;
40150;SDS011;25866;52.420;10.640;2023-08-31T14:51:55;3.05;;;1.50;;
40150;SDS011;25866;52.420;10.640;2023-08-31T14:54:22;3.58;;;1.10;;
40150;SDS011;25866;52.420;10.640;2023-08-31T14:56:48;3.90;;;1.35;;
40150;SDS011;25866;52.420;10.640;2023-08-31T14:59:14;3.67;;;1.20;;
40150;SDS011;25866;52.420;10.640;2023-08-31T15:01:40;3.58;;;1.00;;
40150;SDS011;25866;52.420;10.640;2023-08-31T15:04:11;1.73;;;0.90;;
40150;SDS011;25866;52.420;10.640;2023-08-31T15:06:37;2.80;;;1.00;;
40150;SDS011;25866;52.420;10.640;2023-08-31T15:09:03;3.97;;;1.17;;
40150;SDS011;25866;52.420;10.640;2023-08-31T15:11:29;2.25;;;1.00;;
40150;SDS011;25866;52.420;10.640;2023-08-31T15:13:56;4.93;;;1.17;;
40150;SDS011;25866;52.420;10.640;2023-08-31T15:16:22;2.58;;;1.00;;
40150;SDS011;25866;52.420;10.640;2023-08-31T15:18:49;3.65;;;1.15;;